sensor_id;sensor_type;location;lat;lon;timestamp;temperature;humidity
63966;DHT22;50151;52.030;5.350;2023-02-27T08:27:33;0.70;99.90
63966;DHT22;50151;52.030;5.350;2023-02-27T08:30:00;0.80;99.90
63966;DHT22;50151;52.030;5.350;2023-02-27T08:32:27;0.90;99.90
63966;DHT22;50151;52.030;5.350;2023-02-27T08:34:54;1.00;99.90
63966;DHT22;50151;52.030;5.350;2023-02-27T08:37:20;1.00;99.90
63966;DHT22;50151;52.030;5.350;2023-02-27T08:39:47;1.10;99.90
63966;DHT22;50151;52.030;5.350;2023-02-27T08:42:14;1.20;99.90
63966;DHT22;50151;52.030;5.350;2023-02-27T08:44:40;1.20;99.90
63966;DHT22;50151;52.030;5.350;2023-02-27T08:47:08;1.30;99.90
63966;DHT22;50151;52.030;5.350;2023-02-27T08:49:34;1.30;99.90
63966;DHT22;50151;52.030;5.350;2023-02-27T08:52:01;1.40;99.90
63966;DHT22;50151;52.030;5.350;2023-02-27T08:54:29;1.50;99.90
63966;DHT22;50151;52.030;5.350;2023-02-27T08:56:56;1.50;99.90
63966;DHT22;50151;52.030;5.350;2023-02-27T08:59:22;1.60;99.90
63966;DHT22;50151;52.030;5.350;2023-02-27T09:01:49;1.70;99.90
63966;DHT22;50151;52.030;5.350;2023-02-27T09:04:16;1.70;99.90
63966;DHT22;50151;52.030;5.350;2023-02-27T09:06:42;1.80;99.90
63966;DHT22;50151;52.030;5.350;2023-02-27T09:09:09;1.90;99.90
63966;DHT22;50151;52.030;5.350;2023-02-27T09:11:36;2.00;99.90
63966;DHT22;50151;52.030;5.350;2023-02-27T09:14:04;2.10;99.90
63966;DHT22;50151;52.030;5.350;2023-02-27T09:16:31;2.20;99.90
63966;DHT22;50151;52.030;5.350;2023-02-27T09:18:58;2.20;99.90
63966;DHT22;50151;52.030;5.350;2023-02-27T09:21:25;2.30;99.90
63966;DHT22;50151;52.030;5.350;2023-02-27T09:23:52;2.40;99.90
63966;DHT22;50151;52.030;5.350;2023-02-27T09:26:20;2.40;99.90
63966;DHT22;50151;52.030;5.350;2023-02-27T09:29:06;2.50;99.90
63966;DHT22;50151;52.030;5.350;2023-02-27T09:31:33;2.60;99.90
63966;DHT22;50151;52.030;5.350;2023-02-27T09:34:00;2.80;99.90
63966;DHT22;50151;52.030;5.350;2023-02-27T09:36:27;2.80;99.90
63966;DHT22;50151;52.030;5.350;2023-02-27T09:38:54;2.90;99.90
63966;DHT22;50151;52.030;5.350;2023-02-27T09:44:22;3.10;99.90
63966;DHT22;50151;52.030;5.350;2023-02-27T09:47:15;3.10;99.90
63966;DHT22;50151;52.030;5.350;2023-02-27T09:50:01;3.20;99.90
63966;DHT22;50151;52.030;5.350;2023-02-27T09:52:31;3.40;99.90
63966;DHT22;50151;52.030;5.350;2023-02-27T09:54:58;3.50;99.90
63966;DHT22;50151;52.030;5.350;2023-02-27T10:00:25;3.60;99.90
63966;DHT22;50151;52.030;5.350;2023-02-27T10:03:03;3.60;99.40
63966;DHT22;50151;52.030;5.350;2023-02-27T10:11:37;3.90;97.10
63966;DHT22;50151;52.030;5.350;2023-02-27T10:14:23;3.90;95.00
63966;DHT22;50151;52.030;5.350;2023-02-27T10:16:51;4.00;94.90
63966;DHT22;50151;52.030;5.350;2023-02-27T10:19:26;4.10;94.30
63966;DHT22;50151;52.030;5.350;2023-02-27T10:21:54;4.20;93.60
63966;DHT22;50151;52.030;5.350;2023-02-27T10:24:28;4.40;93.70
63966;DHT22;50151;52.030;5.350;2023-02-27T10:26:58;4.40;91.60
63966;DHT22;50151;52.030;5.350;2023-02-27T10:29:34;4.50;90.00
63966;DHT22;50151;52.030;5.350;2023-02-27T10:32:19;4.50;88.60
63966;DHT22;50151;52.030;5.350;2023-02-27T10:34:54;4.60;86.50
63966;DHT22;50151;52.030;5.350;2023-02-27T10:37:24;4.70;83.90
63966;DHT22;50151;52.030;5.350;2023-02-27T10:39:57;4.70;84.60
63966;DHT22;50151;52.030;5.350;2023-02-27T10:42:28;4.80;84.50
63966;DHT22;50151;52.030;5.350;2023-02-27T10:44:58;5.00;82.70
63966;DHT22;50151;52.030;5.350;2023-02-27T10:47:25;5.00;84.40
63966;DHT22;50151;52.030;5.350;2023-02-27T10:49:53;5.20;76.50
63966;DHT22;50151;52.030;5.350;2023-02-27T10:52:20;5.40;71.90
63966;DHT22;50151;52.030;5.350;2023-02-27T10:54:47;5.40;72.90
63966;DHT22;50151;52.030;5.350;2023-02-27T10:57:30;5.40;72.90
63966;DHT22;50151;52.030;5.350;2023-02-27T11:00:01;5.50;69.30
63966;DHT22;50151;52.030;5.350;2023-02-27T11:02:38;5.50;67.10
63966;DHT22;50151;52.030;5.350;2023-02-27T11:05:06;5.50;68.50
63966;DHT22;50151;52.030;5.350;2023-02-27T11:07:43;5.50;73.90
63966;DHT22;50151;52.030;5.350;2023-02-27T11:12:38;5.60;63.30
63966;DHT22;50151;52.030;5.350;2023-02-27T11:17:42;5.90;62.00
63966;DHT22;50151;52.030;5.350;2023-02-27T11:20:38;6.20;60.80
63966;DHT22;50151;52.030;5.350;2023-02-27T11:25:41;6.40;58.10
63966;DHT22;50151;52.030;5.350;2023-02-27T11:28:28;6.30;57.40
63966;DHT22;50151;52.030;5.350;2023-02-27T11:31:03;6.10;57.80
63966;DHT22;50151;52.030;5.350;2023-02-27T11:33:37;5.90;59.40
63966;DHT22;50151;52.030;5.350;2023-02-27T11:36:05;5.80;58.50
63966;DHT22;50151;52.030;5.350;2023-02-27T11:38:32;5.60;58.20
63966;DHT22;50151;52.030;5.350;2023-02-27T11:41:03;6.00;58.10
63966;DHT22;50151;52.030;5.350;2023-02-27T11:43:32;6.30;57.60
63966;DHT22;50151;52.030;5.350;2023-02-27T11:46:06;6.50;56.20
63966;DHT22;50151;52.030;5.350;2023-02-27T11:51:45;6.70;55.00
63966;DHT22;50151;52.030;5.350;2023-02-27T11:54:55;6.80;55.30
63966;DHT22;50151;52.030;5.350;2023-02-27T11:57:35;7.00;54.30
63966;DHT22;50151;52.030;5.350;2023-02-27T12:02:51;7.20;54.20
63966;DHT22;50151;52.030;5.350;2023-02-27T12:05:27;7.10;53.80
63966;DHT22;50151;52.030;5.350;2023-02-27T12:08:29;7.10;53.30
63966;DHT22;50151;52.030;5.350;2023-02-27T12:10:58;7.30;53.70
63966;DHT22;50151;52.030;5.350;2023-02-27T12:13:42;7.20;52.20
63966;DHT22;50151;52.030;5.350;2023-02-27T12:16:24;7.30;51.60
63966;DHT22;50151;52.030;5.350;2023-02-27T12:19:09;7.30;52.30
63966;DHT22;50151;52.030;5.350;2023-02-27T12:21:43;7.50;51.60
63966;DHT22;50151;52.030;5.350;2023-02-27T12:24:23;7.50;51.70
63966;DHT22;50151;52.030;5.350;2023-02-27T12:27:13;7.50;51.30
63966;DHT22;50151;52.030;5.350;2023-02-27T12:30:05;7.70;52.10
63966;DHT22;50151;52.030;5.350;2023-02-27T12:32:42;7.90;51.40
63966;DHT22;50151;52.030;5.350;2023-02-27T12:35:29;8.20;51.60
63966;DHT22;50151;52.030;5.350;2023-02-27T12:37:58;8.00;51.10
63966;DHT22;50151;52.030;5.350;2023-02-27T12:40:30;8.20;50.80
63966;DHT22;50151;52.030;5.350;2023-02-27T12:43:13;8.20;49.70
63966;DHT22;50151;52.030;5.350;2023-02-27T12:48:47;8.70;50.70
63966;DHT22;50151;52.030;5.350;2023-02-27T12:59:38;9.40;48.00
63966;DHT22;50151;52.030;5.350;2023-02-27T13:02:32;9.20;47.30
63966;DHT22;50151;52.030;5.350;2023-02-27T13:08:06;9.80;47.80
63966;DHT22;50151;52.030;5.350;2023-02-27T13:10:47;9.60;46.90
63966;DHT22;50151;52.030;5.350;2023-02-27T13:13:25;10.50;46.80
63966;DHT22;50151;52.030;5.350;2023-02-27T13:16:06;10.80;45.90
63966;DHT22;50151;52.030;5.350;2023-02-27T13:18:40;10.70;48.10
63966;DHT22;50151;52.030;5.350;2023-02-27T13:24:11;9.40;48.30
63966;DHT22;50151;52.030;5.350;2023-02-27T13:26:45;9.20;50.00
63966;DHT22;50151;52.030;5.350;2023-02-27T13:29:15;8.90;49.30
63966;DHT22;50151;52.030;5.350;2023-02-27T13:32:09;8.90;50.70
63966;DHT22;50151;52.030;5.350;2023-02-27T13:34:50;8.80;50.50
63966;DHT22;50151;52.030;5.350;2023-02-27T13:37:18;8.60;50.40
63966;DHT22;50151;52.030;5.350;2023-02-27T13:45:04;8.30;52.20
63966;DHT22;50151;52.030;5.350;2023-02-27T13:47:48;9.40;51.60
63966;DHT22;50151;52.030;5.350;2023-02-27T13:52:47;9.60;50.70
63966;DHT22;50151;52.030;5.350;2023-02-27T13:55:32;9.30;49.40
63966;DHT22;50151;52.030;5.350;2023-02-27T13:58:01;9.10;50.60
63966;DHT22;50151;52.030;5.350;2023-02-27T14:00:31;8.50;52.40
63966;DHT22;50151;52.030;5.350;2023-02-27T14:03:08;8.50;53.30
63966;DHT22;50151;52.030;5.350;2023-02-27T14:05:46;8.60;54.10
63966;DHT22;50151;52.030;5.350;2023-02-27T14:08:36;8.60;54.00
63966;DHT22;50151;52.030;5.350;2023-02-27T14:11:24;8.40;53.80
63966;DHT22;50151;52.030;5.350;2023-02-27T14:24:19;10.00;50.00
63966;DHT22;50151;52.030;5.350;2023-02-27T14:26:48;10.80;48.60
63966;DHT22;50151;52.030;5.350;2023-02-27T14:29:24;10.00;49.10
63966;DHT22;50151;52.030;5.350;2023-02-27T14:32:02;9.70;50.60
63966;DHT22;50151;52.030;5.350;2023-02-27T14:34:30;10.60;49.50
63966;DHT22;50151;52.030;5.350;2023-02-27T14:37:00;9.80;48.50
63966;DHT22;50151;52.030;5.350;2023-02-27T14:39:33;9.50;49.10
63966;DHT22;50151;52.030;5.350;2023-02-27T14:44:45;9.20;48.30
63966;DHT22;50151;52.030;5.350;2023-02-27T14:49:54;9.30;49.50
63966;DHT22;50151;52.030;5.350;2023-02-27T14:52:30;9.90;48.60
63966;DHT22;50151;52.030;5.350;2023-02-27T14:57:50;10.20;47.90
63966;DHT22;50151;52.030;5.350;2023-02-27T15:03:22;10.80;47.40
63966;DHT22;50151;52.030;5.350;2023-02-27T15:05:56;10.80;46.90
63966;DHT22;50151;52.030;5.350;2023-02-27T15:08:27;10.80;47.50
63966;DHT22;50151;52.030;5.350;2023-02-27T15:10:55;10.90;47.30
63966;DHT22;50151;52.030;5.350;2023-02-27T15:13:29;10.10;48.00
63966;DHT22;50151;52.030;5.350;2023-02-27T15:19:15;10.50;47.30
63966;DHT22;50151;52.030;5.350;2023-02-27T15:21:51;9.70;48.20
63966;DHT22;50151;52.030;5.350;2023-02-27T15:24:29;9.30;49.20
63966;DHT22;50151;52.030;5.350;2023-02-27T15:27:20;9.00;49.80
63966;DHT22;50151;52.030;5.350;2023-02-27T15:29:52;9.00;50.20
63966;DHT22;50151;52.030;5.350;2023-02-27T15:32:39;9.50;50.20
63966;DHT22;50151;52.030;5.350;2023-02-27T15:35:15;9.40;49.70
63966;DHT22;50151;52.030;5.350;2023-02-27T15:37:51;9.90;49.80
63966;DHT22;50151;52.030;5.350;2023-02-27T15:40:21;10.10;49.10
63966;DHT22;50151;52.030;5.350;2023-02-27T15:42:49;9.80;48.50
63966;DHT22;50151;52.030;5.350;2023-02-27T15:45:18;9.50;48.60
63966;DHT22;50151;52.030;5.350;2023-02-27T15:47:46;9.70;49.60
63966;DHT22;50151;52.030;5.350;2023-02-27T15:52:54;10.10;49.50
63966;DHT22;50151;52.030;5.350;2023-02-27T15:55:27;10.00;48.50
63966;DHT22;50151;52.030;5.350;2023-02-27T15:57:54;9.70;49.60
63966;DHT22;50151;52.030;5.350;2023-02-27T16:00:30;9.20;49.60
63966;DHT22;50151;52.030;5.350;2023-02-27T16:02:57;9.00;50.10
63966;DHT22;50151;52.030;5.350;2023-02-27T16:05:38;8.50;50.70
63966;DHT22;50151;52.030;5.350;2023-02-27T16:08:12;8.30;51.30
63966;DHT22;50151;52.030;5.350;2023-02-27T16:10:42;8.20;51.90
63966;DHT22;50151;52.030;5.350;2023-02-27T16:16:05;8.20;52.50
63966;DHT22;50151;52.030;5.350;2023-02-27T16:18:33;8.00;52.70
63966;DHT22;50151;52.030;5.350;2023-02-27T16:23:39;7.90;53.30
63966;DHT22;50151;52.030;5.350;2023-02-27T16:31:28;7.70;54.10
63966;DHT22;50151;52.030;5.350;2023-02-27T16:33:58;7.70;54.80
63966;DHT22;50151;52.030;5.350;2023-02-27T16:36:30;7.80;54.80
63966;DHT22;50151;52.030;5.350;2023-02-27T16:38:58;7.70;54.80
63966;DHT22;50151;52.030;5.350;2023-02-27T16:41:25;7.60;55.10
63966;DHT22;50151;52.030;5.350;2023-02-27T16:43:53;7.60;55.60
63966;DHT22;50151;52.030;5.350;2023-02-27T16:46:20;7.50;55.30
63966;DHT22;50151;52.030;5.350;2023-02-27T16:48:55;7.50;57.20
63966;DHT22;50151;52.030;5.350;2023-02-27T16:51:27;7.40;56.50
63966;DHT22;50151;52.030;5.350;2023-02-27T16:53:55;7.30;57.40
63966;DHT22;50151;52.030;5.350;2023-02-27T16:56:25;7.10;58.10
63966;DHT22;50151;52.030;5.350;2023-02-27T16:59:04;7.10;57.40
63966;DHT22;50151;52.030;5.350;2023-02-27T17:01:31;7.10;58.10
63966;DHT22;50151;52.030;5.350;2023-02-27T17:04:00;7.00;57.50
63966;DHT22;50151;52.030;5.350;2023-02-27T17:06:26;7.00;58.30
63966;DHT22;50151;52.030;5.350;2023-02-27T17:08:54;6.90;58.30
63966;DHT22;50151;52.030;5.350;2023-02-27T17:11:21;6.90;58.90
63966;DHT22;50151;52.030;5.350;2023-02-27T17:13:48;6.90;58.90
63966;DHT22;50151;52.030;5.350;2023-02-27T17:16:15;6.70;59.00
63966;DHT22;50151;52.030;5.350;2023-02-27T17:18:42;6.70;60.00
63966;DHT22;50151;52.030;5.350;2023-02-27T17:21:08;6.70;59.60
63966;DHT22;50151;52.030;5.350;2023-02-27T17:23:35;6.60;60.00
63966;DHT22;50151;52.030;5.350;2023-02-27T17:26:02;6.50;60.20
63966;DHT22;50151;52.030;5.350;2023-02-27T17:28:29;6.50;60.90
63966;DHT22;50151;52.030;5.350;2023-02-27T17:30:56;6.40;60.80
63966;DHT22;50151;52.030;5.350;2023-02-27T17:33:23;6.40;61.10
63966;DHT22;50151;52.030;5.350;2023-02-27T17:35:50;6.30;61.60
63966;DHT22;50151;52.030;5.350;2023-02-27T17:38:18;6.30;61.80
63966;DHT22;50151;52.030;5.350;2023-02-27T17:40:45;6.30;61.70
63966;DHT22;50151;52.030;5.350;2023-02-27T17:43:11;6.30;63.00
63966;DHT22;50151;52.030;5.350;2023-02-27T17:45:38;6.20;63.80
63966;DHT22;50151;52.030;5.350;2023-02-27T17:48:05;6.10;63.50
63966;DHT22;50151;52.030;5.350;2023-02-27T17:50:32;6.00;64.40
63966;DHT22;50151;52.030;5.350;2023-02-27T17:52:59;6.00;64.40
63966;DHT22;50151;52.030;5.350;2023-02-27T17:55:26;6.00;64.40
63966;DHT22;50151;52.030;5.350;2023-02-27T17:57:53;6.00;65.40
63966;DHT22;50151;52.030;5.350;2023-02-27T18:00:20;5.90;66.80
63966;DHT22;50151;52.030;5.350;2023-02-27T18:02:47;5.80;66.80
63966;DHT22;50151;52.030;5.350;2023-02-27T18:05:13;5.70;72.30
63966;DHT22;50151;52.030;5.350;2023-02-27T18:07:40;5.70;74.40
63966;DHT22;50151;52.030;5.350;2023-02-27T18:10:08;5.60;72.20
63966;DHT22;50151;52.030;5.350;2023-02-27T18:12:36;5.60;77.50
63966;DHT22;50151;52.030;5.350;2023-02-27T18:15:03;5.50;80.00
63966;DHT22;50151;52.030;5.350;2023-02-27T18:17:30;5.50;79.80
63966;DHT22;50151;52.030;5.350;2023-02-27T18:19:57;5.40;80.90
63966;DHT22;50151;52.030;5.350;2023-02-27T18:22:24;5.30;83.30
63966;DHT22;50151;52.030;5.350;2023-02-27T18:24:52;5.30;83.60
63966;DHT22;50151;52.030;5.350;2023-02-27T18:27:19;5.20;85.00
63966;DHT22;50151;52.030;5.350;2023-02-27T18:29:50;5.10;86.50
63966;DHT22;50151;52.030;5.350;2023-02-27T18:32:17;5.00;88.30
63966;DHT22;50151;52.030;5.350;2023-02-27T18:34:44;5.00;89.30
63966;DHT22;50151;52.030;5.350;2023-02-27T18:37:11;4.80;90.50
63966;DHT22;50151;52.030;5.350;2023-02-27T18:39:38;4.80;91.00
63966;DHT22;50151;52.030;5.350;2023-02-27T18:42:04;4.70;91.40
63966;DHT22;50151;52.030;5.350;2023-02-27T18:44:32;4.60;91.30
63966;DHT22;50151;52.030;5.350;2023-02-27T18:46:59;4.50;91.50
63966;DHT22;50151;52.030;5.350;2023-02-27T18:49:25;4.50;92.10
63966;DHT22;50151;52.030;5.350;2023-02-27T18:51:53;4.40;92.30
63966;DHT22;50151;52.030;5.350;2023-02-27T18:54:20;4.30;93.20
63966;DHT22;50151;52.030;5.350;2023-02-27T18:56:49;4.30;93.20
63966;DHT22;50151;52.030;5.350;2023-02-27T18:59:16;4.30;92.50
63966;DHT22;50151;52.030;5.350;2023-02-27T19:01:43;4.20;93.10
63966;DHT22;50151;52.030;5.350;2023-02-27T19:04:10;4.10;93.60
63966;DHT22;50151;52.030;5.350;2023-02-27T19:06:40;4.10;94.30
63966;DHT22;50151;52.030;5.350;2023-02-27T19:09:11;4.10;94.30
63966;DHT22;50151;52.030;5.350;2023-02-27T19:11:38;4.00;94.30
63966;DHT22;50151;52.030;5.350;2023-02-27T19:14:07;3.90;94.70
63966;DHT22;50151;52.030;5.350;2023-02-27T19:16:35;3.90;94.80
63966;DHT22;50151;52.030;5.350;2023-02-27T19:19:03;3.90;95.20
63966;DHT22;50151;52.030;5.350;2023-02-27T19:21:31;3.80;95.20
63966;DHT22;50151;52.030;5.350;2023-02-27T19:23:58;3.80;95.30
63966;DHT22;50151;52.030;5.350;2023-02-27T19:26:25;3.70;95.30
63966;DHT22;50151;52.030;5.350;2023-02-27T19:28:54;3.70;95.50
63966;DHT22;50151;52.030;5.350;2023-02-27T19:31:24;3.60;96.00
63966;DHT22;50151;52.030;5.350;2023-02-27T19:33:51;3.70;96.30
63966;DHT22;50151;52.030;5.350;2023-02-27T19:36:25;3.60;96.40
63966;DHT22;50151;52.030;5.350;2023-02-27T19:38:56;3.70;96.20
63966;DHT22;50151;52.030;5.350;2023-02-27T19:41:24;3.70;96.30
63966;DHT22;50151;52.030;5.350;2023-02-27T19:43:51;3.60;96.60
63966;DHT22;50151;52.030;5.350;2023-02-27T19:46:26;3.60;96.80
63966;DHT22;50151;52.030;5.350;2023-02-27T19:48:57;3.60;96.80
63966;DHT22;50151;52.030;5.350;2023-02-27T19:51:25;3.60;97.00
63966;DHT22;50151;52.030;5.350;2023-02-27T19:53:52;3.60;97.30
63966;DHT22;50151;52.030;5.350;2023-02-27T19:56:22;3.70;97.50
63966;DHT22;50151;52.030;5.350;2023-02-27T19:58:51;3.70;97.70
63966;DHT22;50151;52.030;5.350;2023-02-27T20:01:31;3.70;97.90
63966;DHT22;50151;52.030;5.350;2023-02-27T20:03:59;3.70;98.10
63966;DHT22;50151;52.030;5.350;2023-02-27T20:06:28;3.70;98.40
63966;DHT22;50151;52.030;5.350;2023-02-27T20:09:02;3.80;98.30
63966;DHT22;50151;52.030;5.350;2023-02-27T20:11:30;3.90;98.10
63966;DHT22;50151;52.030;5.350;2023-02-27T20:13:57;3.90;98.20
63966;DHT22;50151;52.030;5.350;2023-02-27T20:16:24;3.90;98.30
63966;DHT22;50151;52.030;5.350;2023-02-27T20:18:55;3.90;98.60
63966;DHT22;50151;52.030;5.350;2023-02-27T20:21:23;3.90;98.60
63966;DHT22;50151;52.030;5.350;2023-02-27T20:23:51;3.90;99.10
63966;DHT22;50151;52.030;5.350;2023-02-27T20:26:28;3.90;98.80
63966;DHT22;50151;52.030;5.350;2023-02-27T20:28:59;3.90;98.70
63966;DHT22;50151;52.030;5.350;2023-02-27T20:31:28;3.90;98.90
63966;DHT22;50151;52.030;5.350;2023-02-27T20:33:57;3.90;99.10
63966;DHT22;50151;52.030;5.350;2023-02-27T20:36:27;3.90;99.00
63966;DHT22;50151;52.030;5.350;2023-02-27T20:38:54;3.90;99.10
63966;DHT22;50151;52.030;5.350;2023-02-27T20:41:22;3.90;99.20
63966;DHT22;50151;52.030;5.350;2023-02-27T20:43:49;3.80;99.30
63966;DHT22;50151;52.030;5.350;2023-02-27T20:46:21;3.70;99.40
63966;DHT22;50151;52.030;5.350;2023-02-27T20:48:53;3.70;99.80
63966;DHT22;50151;52.030;5.350;2023-02-27T20:51:22;3.70;99.90
63966;DHT22;50151;52.030;5.350;2023-02-27T20:53:53;3.70;99.90
63966;DHT22;50151;52.030;5.350;2023-02-27T20:56:39;3.70;99.90
63966;DHT22;50151;52.030;5.350;2023-02-27T20:59:10;3.50;99.90
63966;DHT22;50151;52.030;5.350;2023-02-27T21:01:37;3.50;99.90
63966;DHT22;50151;52.030;5.350;2023-02-27T21:04:04;3.40;99.90
63966;DHT22;50151;52.030;5.350;2023-02-27T21:06:31;3.40;99.90
63966;DHT22;50151;52.030;5.350;2023-02-27T21:09:01;3.30;99.90
63966;DHT22;50151;52.030;5.350;2023-02-27T21:11:29;3.30;99.90
63966;DHT22;50151;52.030;5.350;2023-02-27T21:13:58;3.30;99.90
63966;DHT22;50151;52.030;5.350;2023-02-27T21:16:27;3.30;99.90
63966;DHT22;50151;52.030;5.350;2023-02-27T21:18:54;3.20;99.90
63966;DHT22;50151;52.030;5.350;2023-02-27T21:21:24;3.20;99.90
63966;DHT22;50151;52.030;5.350;2023-02-27T21:23:52;3.10;99.90
63966;DHT22;50151;52.030;5.350;2023-02-27T21:26:28;3.10;99.90
63966;DHT22;50151;52.030;5.350;2023-02-27T21:28:57;3.00;99.90
63966;DHT22;50151;52.030;5.350;2023-02-27T21:31:27;3.10;99.90
63966;DHT22;50151;52.030;5.350;2023-02-27T21:33:54;3.00;99.90
63966;DHT22;50151;52.030;5.350;2023-02-27T21:36:25;3.00;99.90
63966;DHT22;50151;52.030;5.350;2023-02-27T21:39:01;2.90;99.90
63966;DHT22;50151;52.030;5.350;2023-02-27T21:41:28;2.80;99.90
63966;DHT22;50151;52.030;5.350;2023-02-27T21:43:57;2.80;99.90
63966;DHT22;50151;52.030;5.350;2023-02-27T21:46:24;2.70;99.90
63966;DHT22;50151;52.030;5.350;2023-02-27T21:48:51;2.60;99.90
63966;DHT22;50151;52.030;5.350;2023-02-27T21:51:18;2.60;99.90
63966;DHT22;50151;52.030;5.350;2023-02-27T21:54:02;2.70;99.90
63966;DHT22;50151;52.030;5.350;2023-02-27T21:56:29;2.60;99.90
63966;DHT22;50151;52.030;5.350;2023-02-27T21:58:59;2.50;99.90
63966;DHT22;50151;52.030;5.350;2023-02-27T22:01:27;2.50;99.90
63966;DHT22;50151;52.030;5.350;2023-02-27T22:03:55;2.50;99.90
63966;DHT22;50151;52.030;5.350;2023-02-27T22:06:25;2.40;99.90
63966;DHT22;50151;52.030;5.350;2023-02-27T22:08:56;2.40;99.90
63966;DHT22;50151;52.030;5.350;2023-02-27T22:11:25;2.40;99.90
63966;DHT22;50151;52.030;5.350;2023-02-27T22:13:52;2.40;99.90
63966;DHT22;50151;52.030;5.350;2023-02-27T22:16:20;2.40;99.90
63966;DHT22;50151;52.030;5.350;2023-02-27T22:18:47;2.30;99.90
63966;DHT22;50151;52.030;5.350;2023-02-27T22:21:20;2.20;99.90
63966;DHT22;50151;52.030;5.350;2023-02-27T22:23:48;2.20;99.90
63966;DHT22;50151;52.030;5.350;2023-02-27T22:26:21;2.20;99.90
63966;DHT22;50151;52.030;5.350;2023-02-27T22:28:50;2.20;99.90
63966;DHT22;50151;52.030;5.350;2023-02-27T22:31:19;2.10;99.90
63966;DHT22;50151;52.030;5.350;2023-02-27T22:33:49;2.10;99.90
63966;DHT22;50151;52.030;5.350;2023-02-27T22:36:22;2.10;99.90
63966;DHT22;50151;52.030;5.350;2023-02-27T22:38:50;2.00;99.90
63966;DHT22;50151;52.030;5.350;2023-02-27T22:41:19;2.00;99.90
63966;DHT22;50151;52.030;5.350;2023-02-27T22:43:46;2.00;99.90
63966;DHT22;50151;52.030;5.350;2023-02-27T22:46:15;2.00;99.90
63966;DHT22;50151;52.030;5.350;2023-02-27T22:48:43;2.00;99.90
63966;DHT22;50151;52.030;5.350;2023-02-27T22:51:12;1.90;99.90
63966;DHT22;50151;52.030;5.350;2023-02-27T22:53:41;1.90;99.90
